CPX799 Details

Departure: Miami International Airport (KMIA)
Arrival: Aeropuerto Internacional Ezeiza/Ministro Pistarini (SAEZ) at N/A
Route: EONNS2 EONNS A509 URSUS UL795 DIBOK UL795 LOGON UL793 SIMUR UL793 AKNOV UL793 SASNO UL793 ROKES UL793 XOLAT UL793 AKPEL UL793 SIS UL793 GUA UW65 PAGON PAGON6B
Notes:


Current Weather Information
KMIA 230853Z 00000KT 10SM FEW008 FEW015 26/23 A2996 RMK AO2 SLP146 T02610228 55008
SAEZ 230800Z 29005KT CAVOK 08/08 Q1015 NOSIG